createdAt,value
2022-08-24T00:03:59.732Z,1.87
2022-08-24T00:09:03.265Z,2.03
2022-08-24T00:14:07.076Z,2.07
2022-08-24T00:19:12.529Z,1.83
2022-08-24T00:24:16.133Z,2.17
2022-08-24T00:29:20.658Z,2.10
2022-08-24T00:34:26.724Z,2.10
2022-08-24T00:39:30.437Z,2.20
2022-08-24T00:44:34.797Z,2.10
2022-08-24T00:49:44.140Z,2.10
2022-08-24T00:54:52.046Z,2.40
2022-08-24T01:00:00.117Z,2.50
2022-08-24T01:05:09.009Z,2.40
2022-08-24T01:10:19.176Z,2.43
2022-08-24T01:15:23.228Z,2.50
2022-08-24T01:20:28.253Z,1.90
2022-08-24T01:25:35.743Z,2.43
2022-08-24T01:30:39.274Z,2.13
2022-08-24T01:35:42.820Z,2.10
2022-08-24T01:40:52.321Z,2.00
2022-08-24T01:45:55.924Z,2.40
2022-08-24T01:50:59.474Z,2.40
2022-08-24T01:56:05.077Z,2.60
2022-08-24T02:01:08.674Z,2.20
2022-08-24T02:06:12.453Z,2.70
2022-08-24T02:11:17.411Z,2.17
2022-08-24T02:16:21.217Z,2.30
2022-08-24T02:21:25.245Z,2.20
2022-08-24T02:26:31.576Z,2.30
2022-08-24T02:31:37.163Z,2.17
2022-08-24T02:36:41.053Z,2.20
2022-08-24T02:41:45.926Z,2.17
2022-08-24T02:46:49.906Z,2.63
2022-08-24T02:51:53.414Z,2.80
2022-08-24T02:56:58.272Z,2.63
2022-08-24T03:02:02.029Z,2.30
2022-08-24T03:07:06.063Z,2.20
2022-08-24T03:12:11.268Z,2.90
2022-08-24T03:17:14.808Z,2.77
2022-08-24T03:22:19.051Z,2.20
2022-08-24T03:27:24.108Z,2.57
2022-08-24T03:32:27.566Z,2.53
2022-08-24T03:37:33.005Z,3.00
2022-08-24T03:42:37.901Z,3.00
2022-08-24T03:47:41.421Z,3.20
2022-08-24T03:52:47.905Z,3.03
2022-08-24T03:57:53.432Z,3.40
2022-08-24T04:02:57.058Z,3.23
2022-08-24T04:08:00.855Z,3.13
2022-08-24T04:13:08.598Z,3.00
2022-08-24T04:18:12.534Z,2.80
2022-08-24T04:23:16.577Z,2.60
2022-08-24T04:28:23.065Z,3.60
2022-08-24T04:33:26.609Z,3.30
2022-08-24T04:38:31.102Z,3.50
2022-08-24T04:43:37.054Z,3.17
2022-08-24T04:48:40.565Z,3.10
2022-08-24T04:53:44.049Z,3.00
2022-08-24T04:58:50.714Z,3.33
2022-08-24T05:03:56.307Z,3.90
2022-08-24T05:09:00.656Z,3.37
2022-08-24T05:14:05.916Z,3.37
2022-08-24T05:19:14.702Z,3.50
2022-08-24T05:24:18.527Z,3.47
2022-08-24T05:29:24.680Z,3.87
2022-08-24T05:34:28.926Z,3.30
2022-08-24T05:39:32.980Z,2.97
2022-08-24T05:44:37.994Z,3.20
2022-08-24T05:49:41.907Z,2.90
2022-08-24T05:54:46.156Z,3.47
2022-08-24T05:59:51.809Z,3.20
2022-08-24T06:04:55.549Z,3.03
2022-08-24T06:10:14.597Z,3.30
2022-08-24T06:15:19.898Z,3.33
2022-08-24T06:20:23.408Z,3.37
2022-08-24T06:25:44.298Z,2.50
2022-08-24T06:30:49.148Z,3.20
2022-08-24T06:35:52.676Z,2.50
2022-08-24T06:40:56.088Z,2.80
2022-08-24T06:46:01.325Z,2.50
2022-08-24T06:51:10.685Z,2.83
2022-08-24T06:56:15.866Z,2.60
2022-08-24T07:01:22.772Z,2.80
2022-08-24T07:06:27.107Z,2.50
2022-08-24T07:11:30.627Z,2.40
2022-08-24T07:16:36.301Z,2.67
2022-08-24T07:21:39.760Z,2.43
2022-08-24T07:26:43.472Z,2.53
2022-08-24T07:31:49.189Z,2.47
2022-08-24T07:36:53.273Z,2.50
2022-08-24T07:42:11.965Z,2.50
2022-08-24T07:47:37.694Z,2.10
2022-08-24T07:52:42.855Z,2.50
2022-08-24T07:57:46.734Z,2.40
2022-08-24T08:02:51.633Z,2.13
2022-08-24T08:07:55.111Z,2.03
2022-08-24T08:12:58.588Z,2.03
2022-08-24T08:18:03.681Z,2.00
2022-08-24T08:23:25.240Z,1.93
2022-08-24T08:28:35.579Z,2.10
2022-08-24T08:33:41.024Z,2.10
2022-08-24T08:38:44.673Z,1.80
2022-08-24T08:43:54.565Z,1.87
2022-08-24T08:49:27.792Z,2.30
2022-08-24T08:54:39.082Z,2.57
2022-08-24T08:59:59.361Z,3.70
2022-08-24T09:05:41.167Z,3.13
2022-08-24T09:11:05.562Z,1.80
2022-08-24T09:16:19.806Z,2.00
2022-08-24T09:21:52.327Z,2.03
2022-08-24T09:27:09.977Z,1.90
2022-08-24T09:32:29.832Z,2.80
2022-08-24T09:37:43.756Z,1.90
2022-08-24T09:43:33.430Z,3.50
2022-08-24T09:49:14.269Z,2.20
2022-08-24T09:54:46.531Z,2.20
2022-08-24T10:00:08.726Z,1.80
2022-08-24T10:05:25.613Z,2.13
2022-08-24T10:10:40.290Z,2.30
2022-08-24T10:15:52.437Z,2.03
2022-08-24T10:21:14.844Z,2.10
2022-08-24T10:26:27.439Z,2.13
2022-08-24T10:31:41.558Z,1.97
2022-08-24T10:37:02.906Z,1.93
2022-08-24T10:42:56.979Z,2.20
2022-08-24T10:48:29.805Z,1.93
2022-08-24T10:53:37.572Z,2.20
2022-08-24T10:58:53.816Z,1.60
2022-08-24T11:04:04.683Z,1.70
2022-08-24T11:09:13.894Z,1.90
2022-08-24T11:14:29.461Z,1.60
2022-08-24T11:19:36.372Z,1.90
2022-08-24T11:24:44.624Z,2.10
2022-08-24T11:30:01.963Z,1.90
2022-08-24T11:35:10.908Z,2.10
2022-08-24T11:40:15.924Z,2.20
2022-08-24T11:45:29.841Z,1.80
2022-08-24T11:50:40.615Z,1.88
2022-08-24T11:55:57.295Z,1.45
2022-08-24T12:01:09.759Z,1.73
2022-08-24T12:06:32.433Z,1.80
2022-08-24T12:11:43.370Z,1.98
2022-08-24T12:16:56.539Z,1.50
2022-08-24T12:22:05.997Z,1.40
2022-08-24T12:27:14.427Z,1.45
2022-08-24T12:32:26.333Z,1.30
2022-08-24T12:37:35.495Z,1.50
2022-08-24T12:42:49.849Z,1.55
2022-08-24T12:48:00.941Z,1.63
2022-08-24T12:53:46.082Z,1.45
2022-08-24T12:58:59.783Z,1.60
2022-08-24T13:04:17.213Z,1.73
2022-08-24T13:09:32.461Z,1.50
2022-08-24T13:14:37.548Z,1.48
2022-08-24T13:19:44.651Z,1.60
2022-08-24T13:24:50.452Z,1.40
2022-08-24T13:30:06.149Z,1.90
2022-08-24T13:35:31.651Z,1.50
2022-08-24T13:40:48.303Z,1.55
2022-08-24T13:45:58.747Z,1.25
2022-08-24T13:51:20.861Z,1.52
2022-08-24T13:56:46.193Z,1.48
2022-08-24T14:02:09.126Z,1.60
2022-08-24T14:07:19.323Z,1.83
2022-08-24T14:12:43.602Z,1.50
2022-08-24T14:17:59.301Z,1.60
2022-08-24T14:23:09.436Z,1.58
2022-08-24T14:28:41.029Z,1.80
2022-08-24T14:33:58.926Z,1.70
2022-08-24T14:39:11.229Z,1.63
2022-08-24T14:44:35.320Z,1.90
2022-08-24T14:49:48.876Z,1.70
2022-08-24T14:55:05.025Z,1.30
2022-08-24T15:00:13.864Z,1.67
2022-08-24T15:05:25.689Z,1.75
2022-08-24T15:10:39.357Z,1.90
2022-08-24T15:15:50.895Z,1.90
2022-08-24T15:21:11.141Z,1.80
2022-08-24T15:26:20.249Z,1.50
2022-08-24T15:31:26.980Z,1.50
2022-08-24T15:36:34.409Z,1.70
2022-08-24T15:41:42.165Z,1.65
2022-08-24T15:46:49.323Z,1.83
2022-08-24T15:51:56.490Z,1.85
2022-08-24T15:57:02.458Z,1.80
2022-08-24T16:02:30.821Z,2.00
2022-08-24T16:08:00.350Z,1.90
2022-08-24T16:13:28.447Z,2.05
2022-08-24T16:18:48.340Z,1.88
2022-08-24T16:24:01.095Z,2.00
2022-08-24T16:29:05.559Z,2.00
2022-08-24T16:34:20.933Z,2.00
2022-08-24T16:39:26.439Z,1.95
2022-08-24T16:44:32.671Z,1.95
2022-08-24T16:49:36.398Z,2.30
2022-08-24T16:54:41.382Z,2.10
2022-08-24T16:59:47.791Z,2.28
2022-08-24T17:04:51.769Z,1.90
2022-08-24T17:09:59.443Z,2.13
2022-08-24T17:15:03.588Z,2.20
2022-08-24T17:20:11.194Z,2.10
2022-08-24T17:25:16.180Z,2.28
2022-08-24T17:30:20.416Z,2.05
2022-08-24T17:35:24.693Z,2.30
2022-08-24T17:40:36.508Z,2.50
2022-08-24T17:45:40.088Z,2.80
2022-08-24T17:50:44.015Z,2.50
2022-08-24T17:55:49.055Z,2.60
2022-08-24T18:00:52.691Z,2.60
2022-08-24T18:05:56.323Z,2.50
2022-08-24T18:11:09.031Z,2.23
2022-08-24T18:16:22.474Z,2.23
2022-08-24T18:21:27.616Z,2.30
2022-08-24T18:26:33.714Z,2.27
2022-08-24T18:31:37.315Z,2.53
2022-08-24T18:36:40.793Z,2.20
2022-08-24T18:41:49.236Z,2.30
2022-08-24T18:46:53.321Z,2.20
2022-08-24T18:51:56.929Z,3.10
2022-08-24T18:57:01.820Z,2.47
2022-08-24T19:02:26.918Z,2.30
2022-08-24T19:07:32.859Z,2.50
2022-08-24T19:12:40.114Z,2.70
2022-08-24T19:17:50.421Z,2.40
2022-08-24T19:22:54.176Z,2.40
2022-08-24T19:27:59.422Z,2.30
2022-08-24T19:33:04.634Z,2.10
2022-08-24T19:38:08.714Z,2.40
2022-08-24T19:43:14.134Z,2.53
2022-08-24T19:48:18.500Z,2.50
2022-08-24T19:53:24.425Z,2.73
2022-08-24T19:58:37.552Z,2.53
2022-08-24T20:03:41.241Z,2.70
2022-08-24T20:08:48.259Z,2.70
2022-08-24T20:13:54.283Z,2.80
2022-08-24T20:18:58.283Z,2.70
2022-08-24T20:24:01.991Z,2.60
2022-08-24T20:29:07.083Z,2.50
2022-08-24T20:34:10.584Z,2.70
2022-08-24T20:39:18.223Z,2.77
2022-08-24T20:44:23.336Z,3.00
2022-08-24T20:49:28.203Z,3.40
2022-08-24T20:54:31.706Z,2.90
2022-08-24T20:59:36.999Z,3.00
2022-08-24T21:04:40.427Z,3.30
2022-08-24T21:09:43.914Z,3.40
2022-08-24T21:14:48.787Z,2.93
2022-08-24T21:19:54.784Z,3.30
2022-08-24T21:24:58.262Z,3.30
2022-08-24T21:30:03.535Z,2.93
2022-08-24T21:35:07.473Z,3.17
2022-08-24T21:40:12.481Z,3.63
2022-08-24T21:45:17.462Z,3.60
2022-08-24T21:50:20.987Z,3.43
2022-08-24T21:55:29.524Z,3.33
2022-08-24T22:00:36.345Z,3.67
2022-08-24T22:05:39.844Z,3.60
2022-08-24T22:10:43.277Z,3.37
2022-08-24T22:15:49.748Z,3.37
2022-08-24T22:20:53.475Z,3.63
2022-08-24T22:25:56.952Z,4.00
2022-08-24T22:37:02.262Z,3.37
2022-08-24T22:42:06.027Z,3.20
2022-08-24T22:47:13.433Z,3.33
2022-08-24T22:52:18.839Z,4.50
2022-08-24T22:57:22.275Z,3.60
2022-08-24T23:02:27.595Z,3.27
2022-08-24T23:07:31.173Z,3.60
2022-08-24T23:12:34.602Z,3.27
2022-08-24T23:17:39.469Z,3.37
2022-08-24T23:22:43.667Z,3.67
2022-08-24T23:27:50.050Z,3.40
2022-08-24T23:32:55.124Z,3.50
2022-08-24T23:37:58.578Z,3.33
2022-08-24T23:43:02.032Z,3.60
2022-08-24T23:48:07.927Z,3.17
2022-08-24T23:53:11.393Z,3.90
2022-08-24T23:58:15.648Z,3.30
